Time;durP1;ratioP1;P1;durP2;ratioP2;P2;SDS_P1;SDS_P2;PMS_P1;PMS_P2;Temp;Humidity;BMP_temperature;BMP_pressure;BME280_temperature;BME280_humidity;BME280_pressure;Samples;Min_cycle;Max_cycle;Signal;HPM_P1;HPM_P2
2021/01/31 00:00:07;;;;;;;11.88;4.93;;;3.90;99.90;;;;;;5103085;28;20048;-60
2021/01/31 00:02:37;;;;;;;12.73;5.85;;;3.90;99.90;;;;;;5111568;28;20067;-61
2021/01/31 00:05:05;;;;;;;12.02;5.10;;;3.90;99.90;;;;;;5100676;28;20068;-61
2021/01/31 00:07:31;;;;;;;13.05;5.18;;;3.90;99.90;;;;;;5102144;28;20055;-61
2021/01/31 00:09:58;;;;;;;12.32;4.70;;;3.90;99.90;;;;;;5114579;28;20040;-61
2021/01/31 00:12:24;;;;;;;12.70;4.95;;;3.90;99.90;;;;;;5104720;28;20387;-60
2021/01/31 00:14:51;;;;;;;12.02;5.03;;;3.90;99.90;;;;;;5109751;28;20043;-60
2021/01/31 00:17:17;;;;;;;10.63;5.50;;;3.80;99.90;;;;;;5101633;28;20039;-61
2021/01/31 00:19:44;;;;;;;12.48;5.85;;;3.80;99.90;;;;;;5095739;28;20096;-61
2021/01/31 00:22:10;;;;;;;14.88;5.80;;;3.80;99.90;;;;;;5076213;28;20056;-61
2021/01/31 00:24:37;;;;;;;15.88;5.50;;;3.80;99.90;;;;;;5098126;28;20047;-60
2021/01/31 00:27:04;;;;;;;16.23;5.55;;;3.80;99.90;;;;;;5111730;28;20039;-61
2021/01/31 00:29:30;;;;;;;15.10;4.72;;;3.70;99.90;;;;;;5109735;28;20043;-61
2021/01/31 00:31:57;;;;;;;13.98;5.25;;;3.80;99.90;;;;;;5110867;28;20452;-61
2021/01/31 00:34:23;;;;;;;15.00;5.03;;;3.70;99.90;;;;;;5106057;28;20044;-61
2021/01/31 00:36:50;;;;;;;7.78;3.88;;;3.70;99.90;;;;;;5095868;28;20109;-61
2021/01/31 00:39:17;;;;;;;12.50;4.90;;;3.80;99.90;;;;;;5102828;28;20055;-61
2021/01/31 00:41:44;;;;;;;11.43;4.38;;;3.70;99.90;;;;;;5102220;28;20108;-61
2021/01/31 00:44:10;;;;;;;14.45;5.60;;;3.70;99.90;;;;;;5106177;28;20048;-61
2021/01/31 00:46:40;;;;;;;11.55;4.38;;;3.70;99.90;;;;;;5101943;28;20044;-61
2021/01/31 00:49:08;;;;;;;8.90;3.97;;;3.70;99.90;;;;;;5100688;28;20502;-61
2021/01/31 00:51:35;;;;;;;10.10;3.83;;;3.70;99.90;;;;;;5112119;28;20050;-62
2021/01/31 00:54:02;;;;;;;14.48;4.95;;;3.60;99.90;;;;;;5108524;28;20048;-60
2021/01/31 00:56:29;;;;;;;9.93;4.25;;;3.60;99.90;;;;;;5111192;28;20044;-61
2021/01/31 00:58:56;;;;;;;11.15;4.70;;;3.60;99.90;;;;;;5104032;28;20512;-61
2021/01/31 01:01:22;;;;;;;13.18;4.95;;;3.60;99.90;;;;;;5106038;28;20444;-61
2021/01/31 01:03:50;;;;;;;10.52;4.55;;;3.60;99.90;;;;;;5102710;28;20382;-62
2021/01/31 01:06:25;;;;;;;11.18;4.72;;;3.60;99.90;;;;;;5105884;28;20085;-61
2021/01/31 01:08:52;;;;;;;11.65;4.55;;;3.60;99.90;;;;;;5104748;28;20080;-60
2021/01/31 01:11:18;;;;;;;12.85;4.60;;;3.60;99.90;;;;;;5107709;28;20106;-61
2021/01/31 01:13:45;;;;;;;17.67;6.85;;;3.60;99.90;;;;;;5104857;28;20162;-61
2021/01/31 01:16:12;;;;;;;22.95;7.68;;;3.60;99.90;;;;;;5105240;28;20140;-61
2021/01/31 01:18:39;;;;;;;29.08;10.77;;;3.60;99.90;;;;;;5103440;28;20090;-61
2021/01/31 01:21:06;;;;;;;33.53;11.85;;;3.60;99.90;;;;;;5103854;28;20043;-60
2021/01/31 01:23:32;;;;;;;28.65;10.57;;;3.50;99.90;;;;;;5107078;28;20039;-61
2021/01/31 01:25:59;;;;;;;25.20;9.55;;;3.40;99.90;;;;;;5109967;28;20063;-60
2021/01/31 01:28:25;;;;;;;31.02;10.90;;;3.30;99.90;;;;;;5100482;28;20560;-62
2021/01/31 01:30:52;;;;;;;28.63;11.45;;;3.30;99.90;;;;;;5109805;28;20055;-61
2021/01/31 01:33:18;;;;;;;26.35;10.80;;;3.30;99.90;;;;;;5109897;28;20052;-61
2021/01/31 01:35:45;;;;;;;26.65;10.32;;;3.30;99.90;;;;;;5109547;28;20031;-61
2021/01/31 01:38:12;;;;;;;26.88;9.90;;;3.30;99.90;;;;;;5107670;28;20043;-61
2021/01/31 01:40:40;;;;;;;23.17;9.45;;;3.20;99.90;;;;;;5099366;28;20409;-61
2021/01/31 01:43:14;;;;;;;24.17;8.82;;;3.20;99.90;;;;;;5109462;28;20039;-60
2021/01/31 01:45:42;;;;;;;27.45;10.90;;;3.20;99.90;;;;;;5108768;28;20110;-61
2021/01/31 01:48:17;;;;;;;27.40;10.43;;;3.10;99.90;;;;;;5102382;28;20040;-60
2021/01/31 01:50:50;;;;;;;23.58;9.05;;;3.10;99.90;;;;;;5101940;28;20036;-61
2021/01/31 01:53:19;;;;;;;22.42;8.48;;;3.00;99.90;;;;;;5108419;28;20052;-60
2021/01/31 01:55:53;;;;;;;25.05;8.00;;;2.80;99.90;;;;;;5106330;28;20451;-60
2021/01/31 01:58:20;;;;;;;24.60;8.80;;;2.70;99.90;;;;;;5111578;28;20541;-61
2021/01/31 02:00:48;;;;;;;23.70;8.45;;;2.70;99.90;;;;;;5100256;28;20055;-60
2021/01/31 02:03:23;;;;;;;24.63;8.98;;;2.70;99.90;;;;;;5103607;28;20044;-61
2021/01/31 02:06:01;;;;;;;19.60;7.63;;;2.60;99.90;;;;;;5103846;28;20032;-60
2021/01/31 02:08:28;;;;;;;20.50;8.63;;;2.50;99.90;;;;;;5103154;28;20044;-61
2021/01/31 02:10:54;;;;;;;19.85;8.13;;;2.40;99.90;;;;;;5101451;28;20043;-61
2021/01/31 02:13:21;;;;;;;23.75;8.80;;;2.30;99.90;;;;;;5094960;28;20125;-61
2021/01/31 02:15:48;;;;;;;19.23;7.68;;;2.30;99.90;;;;;;5098758;28;20062;-61
2021/01/31 02:18:30;;;;;;;25.80;9.38;;;2.30;99.90;;;;;;5110019;28;20051;-61
2021/01/31 02:21:06;;;;;;;22.42;8.38;;;2.20;99.90;;;;;;5096197;28;20498;-61
2021/01/31 02:24:08;;;;;;;26.23;9.10;;;2.10;99.90;;;;;;5101108;28;20039;-61
2021/01/31 02:27:08;;;;;;;25.63;8.98;;;2.00;99.90;;;;;;5106211;28;20764;-60
2021/01/31 02:29:34;;;;;;;23.83;8.65;;;2.00;99.90;;;;;;5101462;28;20048;-61
2021/01/31 02:32:46;;;;;;;22.63;8.40;;;2.00;99.90;;;;;;5105669;28;20444;-60
2021/01/31 02:35:19;;;;;;;28.15;9.38;;;2.00;99.90;;;;;;5098004;28;20477;-61
2021/01/31 02:38:25;;;;;;;28.45;8.85;;;2.00;99.90;;;;;;5099907;28;20490;-60
2021/01/31 02:41:02;;;;;;;21.73;8.23;;;2.00;99.90;;;;;;5100323;28;20501;-60
2021/01/31 02:43:37;;;;;;;24.13;9.05;;;2.00;99.90;;;;;;5108274;28;20409;-61
2021/01/31 02:46:16;;;;;;;25.20;8.75;;;2.00;99.90;;;;;;5126738;27;20050;-61
2021/01/31 02:48:52;;;;;;;26.63;8.45;;;2.00;99.90;;;;;;5096057;28;20039;-61
2021/01/31 02:51:25;;;;;;;24.50;8.07;;;2.00;99.90;;;;;;5093386;28;20689;-61
2021/01/31 02:54:19;;;;;;;23.85;8.85;;;2.00;99.90;;;;;;5105063;28;20051;-60
2021/01/31 02:57:05;;;;;;;21.70;7.82;;;1.90;99.90;;;;;;5108057;28;20048;-61
2021/01/31 02:59:41;;;;;;;17.70;7.70;;;1.90;99.90;;;;;;5103772;28;20039;-61
2021/01/31 03:02:17;;;;;;;26.92;9.63;;;1.90;99.90;;;;;;5100893;28;20036;-61
2021/01/31 03:05:01;;;;;;;26.70;9.07;;;1.90;99.90;;;;;;5106294;28;20035;-61
2021/01/31 03:07:50;;;;;;;20.15;7.53;;;1.90;99.90;;;;;;5108251;28;20473;-63
2021/01/31 03:10:36;;;;;;;22.05;8.25;;;1.90;99.90;;;;;;5103531;28;20051;-61
2021/01/31 03:13:23;;;;;;;23.98;8.70;;;1.90;99.90;;;;;;5108464;28;20039;-60
2021/01/31 03:16:08;;;;;;;23.67;8.80;;;1.90;99.90;;;;;;5109134;28;20134;-61
2021/01/31 03:18:42;;;;;;;21.25;8.43;;;1.90;99.90;;;;;;5109722;28;20039;-61
2021/01/31 03:21:22;;;;;;;23.20;7.97;;;2.00;99.90;;;;;;5094111;28;20490;-60
2021/01/31 03:23:58;;;;;;;24.95;8.43;;;2.00;99.90;;;;;;5099976;28;20032;-60
2021/01/31 03:26:39;;;;;;;22.02;9.00;;;1.90;99.90;;;;;;5092531;28;20040;-61
2021/01/31 03:29:05;;;;;;;21.42;7.20;;;2.00;99.90;;;;;;5101090;28;20047;-61
2021/01/31 03:31:36;;;;;;;21.33;7.38;;;2.00;99.90;;;;;;5096770;28;20059;-61
2021/01/31 03:34:08;;;;;;;23.88;8.68;;;2.00;99.90;;;;;;5107687;28;20054;-61
2021/01/31 03:36:37;;;;;;;22.33;8.50;;;2.00;99.90;;;;;;5099524;28;20047;-61
2021/01/31 03:39:05;;;;;;;19.67;7.38;;;1.90;99.90;;;;;;5100633;28;20032;-61
2021/01/31 03:41:32;;;;;;;24.08;7.88;;;1.90;99.90;;;;;;5095530;28;20623;-61
2021/01/31 03:43:58;;;;;;;19.27;7.68;;;1.90;99.90;;;;;;5102555;28;20044;-61
2021/01/31 03:46:40;;;;;;;25.90;9.43;;;1.80;99.90;;;;;;5098462;28;20040;-61
2021/01/31 03:49:09;;;;;;;17.02;7.13;;;1.90;99.90;;;;;;5102097;28;20040;-61
2021/01/31 03:51:36;;;;;;;21.15;7.40;;;1.90;99.90;;;;;;5103559;28;20119;-61
2021/01/31 03:54:05;;;;;;;20.08;7.32;;;1.80;99.90;;;;;;5094972;28;20072;-60
2021/01/31 03:56:36;;;;;;;21.38;7.53;;;1.60;99.90;;;;;;5100628;28;20088;-61
2021/01/31 03:59:07;;;;;;;20.35;7.85;;;1.50;99.90;;;;;;5103759;28;20047;-60
2021/01/31 04:01:37;;;;;;;21.08;8.07;;;1.50;99.90;;;;;;5103202;28;20036;-61
2021/01/31 04:04:18;;;;;;;21.55;7.70;;;1.40;99.90;;;;;;5100521;28;20032;-60
2021/01/31 04:06:51;;;;;;;16.85;5.97;;;1.50;99.90;;;;;;5100073;28;20043;-61
2021/01/31 04:09:19;;;;;;;16.70;6.63;;;1.40;99.90;;;;;;5100710;28;20067;-61
2021/01/31 04:11:46;;;;;;;17.80;6.35;;;1.50;99.90;;;;;;5096421;28;20486;-61
2021/01/31 04:14:26;;;;;;;16.80;5.65;;;1.40;99.90;;;;;;5089162;28;20072;-61
2021/01/31 04:16:53;;;;;;;21.25;7.78;;;1.30;99.90;;;;;;5101499;28;20494;-61
2021/01/31 04:19:21;;;;;;;18.63;6.05;;;1.30;99.90;;;;;;5097480;28;20039;-61
2021/01/31 04:21:47;;;;;;;15.75;5.95;;;1.30;99.90;;;;;;5106333;28;20042;-61
2021/01/31 04:24:14;;;;;;;21.83;6.80;;;1.30;99.90;;;;;;5100626;28;20043;-60
2021/01/31 04:26:41;;;;;;;16.92;6.60;;;1.30;99.90;;;;;;5109079;28;20400;-61
2021/01/31 04:29:08;;;;;;;22.45;7.93;;;1.30;99.90;;;;;;5102000;28;20055;-61
2021/01/31 04:31:35;;;;;;;19.67;7.10;;;1.40;99.90;;;;;;5105084;28;20051;-61
2021/01/31 04:34:01;;;;;;;17.50;6.75;;;1.40;99.90;;;;;;5099570;28;20072;-60
2021/01/31 04:36:28;;;;;;;24.00;7.82;;;1.40;99.90;;;;;;5111196;28;20512;-62
2021/01/31 04:38:56;;;;;;;20.35;7.05;;;1.40;99.90;;;;;;5109072;28;20047;-62
2021/01/31 04:41:29;;;;;;;21.83;7.63;;;1.40;99.90;;;;;;5099764;28;20556;-61
2021/01/31 04:43:56;;;;;;;20.30;6.32;;;1.50;99.90;;;;;;5106964;28;20040;-61
2021/01/31 04:46:45;;;;;;;16.75;7.10;;;1.40;99.90;;;;;;5106447;28;20040;-60
2021/01/31 04:49:49;;;;;;;22.25;7.35;;;1.40;99.90;;;;;;5104371;28;20036;-61
2021/01/31 04:52:48;;;;;;;22.88;8.05;;;1.30;99.90;;;;;;5103642;28;20043;-61
2021/01/31 04:55:21;;;;;;;20.80;6.32;;;1.30;99.90;;;;;;5092381;28;20085;-61
2021/01/31 04:58:16;;;;;;;19.15;6.80;;;1.30;99.90;;;;;;5103266;28;20124;-60
2021/01/31 05:00:59;;;;;;;18.70;6.55;;;1.30;99.90;;;;;;5103019;28;20047;-61
2021/01/31 05:03:28;;;;;;;23.38;8.38;;;1.30;99.90;;;;;;5105623;28;20042;-61
2021/01/31 05:06:04;;;;;;;17.33;6.97;;;1.40;99.90;;;;;;5112654;28;20043;-61
2021/01/31 05:08:32;;;;;;;21.70;7.72;;;1.30;99.90;;;;;;5107132;28;20101;-61
2021/01/31 05:11:15;;;;;;;21.52;7.95;;;1.30;99.90;;;;;;5107616;28;20080;-61
2021/01/31 05:13:50;;;;;;;15.82;6.15;;;1.30;99.90;;;;;;5106416;28;20865;-62
2021/01/31 05:16:17;;;;;;;19.95;6.97;;;1.30;99.90;;;;;;5106468;28;20040;-60
2021/01/31 05:18:47;;;;;;;20.08;6.85;;;1.30;99.90;;;;;;5106192;28;20027;-62
2021/01/31 05:21:19;;;;;;;21.33;7.88;;;1.40;99.90;;;;;;5102982;28;20412;-61
2021/01/31 05:23:57;;;;;;;20.05;8.57;;;1.40;99.90;;;;;;5108165;28;20557;-61
2021/01/31 05:26:24;;;;;;;19.20;6.97;;;1.30;99.90;;;;;;5097727;28;20055;-61
2021/01/31 05:28:58;;;;;;;18.50;5.47;;;1.30;99.90;;;;;;5109027;28;20040;-61
2021/01/31 05:31:30;;;;;;;16.38;6.47;;;1.30;99.90;;;;;;5106843;28;20513;-61
2021/01/31 05:33:59;;;;;;;19.85;6.40;;;1.20;99.90;;;;;;5110180;28;20036;-61
2021/01/31 05:36:28;;;;;;;16.17;5.55;;;1.20;99.90;;;;;;5110962;28;20044;-61
2021/01/31 05:38:56;;;;;;;16.60;5.07;;;1.10;99.90;;;;;;5109086;28;20059;-61
2021/01/31 05:41:28;;;;;;;19.25;6.07;;;1.00;99.90;;;;;;5093912;28;20741;-61
2021/01/31 05:44:00;;;;;;;16.85;5.55;;;1.00;99.90;;;;;;5105291;28;20501;-61
2021/01/31 05:46:47;;;;;;;15.88;5.10;;;0.90;99.90;;;;;;5091378;28;20058;-60
2021/01/31 05:49:45;;;;;;;21.60;6.35;;;0.90;99.90;;;;;;5104309;28;20132;-61
2021/01/31 05:52:20;;;;;;;18.83;6.10;;;0.80;99.90;;;;;;5084952;28;20068;-61
2021/01/31 05:54:52;;;;;;;17.65;5.45;;;0.80;99.90;;;;;;5098117;28;20044;-61
2021/01/31 05:57:30;;;;;;;17.67;6.35;;;0.90;99.90;;;;;;5109524;28;20082;-61
2021/01/31 05:59:59;;;;;;;19.15;6.60;;;0.80;99.90;;;;;;5099326;28;20501;-60
2021/01/31 06:02:26;;;;;;;14.13;4.88;;;0.80;99.90;;;;;;5122288;27;20511;-60
2021/01/31 06:05:26;;;;;;;17.85;6.88;;;0.80;99.90;;;;;;5098777;28;20043;-59
2021/01/31 06:08:09;;;;;;;18.23;6.22;;;0.90;99.90;;;;;;5095869;28;20043;-61
2021/01/31 06:10:40;;;;;;;20.13;6.57;;;1.00;99.90;;;;;;5107898;28;20042;-61
2021/01/31 06:13:21;;;;;;;15.40;5.53;;;0.90;99.90;;;;;;5099283;28;20102;-61
2021/01/31 06:15:57;;;;;;;14.65;5.30;;;0.90;99.90;;;;;;5101906;28;20497;-61
2021/01/31 06:18:57;;;;;;;16.33;5.43;;;0.90;99.90;;;;;;5104332;28;20042;-61
2021/01/31 06:21:40;;;;;;;16.10;5.38;;;0.90;99.90;;;;;;5101863;28;20032;-60
2021/01/31 06:24:28;;;;;;;13.73;4.38;;;0.80;99.90;;;;;;5109631;28;20366;-61
2021/01/31 06:26:57;;;;;;;12.13;5.07;;;0.90;99.90;;;;;;5092359;28;20115;-61
2021/01/31 06:30:03;;;;;;;15.80;6.03;;;0.90;99.90;;;;;;5100040;28;20043;-61
2021/01/31 06:32:32;;;;;;;15.45;5.05;;;0.90;99.90;;;;;;5111412;28;20051;-61
2021/01/31 06:35:03;;;;;;;16.70;6.05;;;1.00;99.90;;;;;;5108356;28;20048;-61
2021/01/31 06:37:44;;;;;;;16.77;5.40;;;0.90;99.90;;;;;;5101778;28;20047;-61
2021/01/31 06:40:29;;;;;;;15.88;5.60;;;0.90;99.90;;;;;;5091909;28;20048;-62
2021/01/31 06:43:08;;;;;;;15.35;5.53;;;1.00;99.90;;;;;;5102626;28;20494;-62
2021/01/31 06:45:49;;;;;;;15.73;5.72;;;1.10;99.90;;;;;;5108414;28;20062;-60
2021/01/31 06:48:34;;;;;;;15.93;5.85;;;1.10;99.90;;;;;;5098315;28;20039;-60
2021/01/31 06:51:23;;;;;;;16.60;5.47;;;1.10;99.90;;;;;;5101068;28;20048;-60
2021/01/31 06:54:15;;;;;;;18.95;5.82;;;1.10;99.90;;;;;;5102654;28;20410;-61
2021/01/31 06:57:18;;;;;;;16.73;5.80;;;1.10;99.90;;;;;;5102161;28;20054;-61
2021/01/31 07:00:06;;;;;;;19.70;6.70;;;1.10;99.90;;;;;;5105311;28;20047;-61
2021/01/31 07:02:47;;;;;;;15.85;5.20;;;1.10;99.90;;;;;;5106069;28;20046;-61
2021/01/31 07:05:35;;;;;;;24.40;6.65;;;1.20;99.90;;;;;;5098240;28;20520;-61
2021/01/31 07:08:27;;;;;;;21.83;7.43;;;1.10;99.90;;;;;;5095436;28;20033;-61
2021/01/31 07:11:18;;;;;;;20.20;6.90;;;1.10;99.90;;;;;;5106417;28;20051;-61
2021/01/31 07:14:10;;;;;;;22.83;6.93;;;1.20;99.90;;;;;;5097970;28;20374;-62
2021/01/31 07:16:41;;;;;;;15.45;5.47;;;1.20;99.90;;;;;;5099053;28;20047;-62
2021/01/31 07:19:20;;;;;;;18.63;5.90;;;1.30;99.90;;;;;;5107138;28;20452;-60
2021/01/31 07:22:14;;;;;;;19.98;6.15;;;1.40;99.90;;;;;;5104475;28;20043;-59
2021/01/31 07:24:47;;;;;;;20.48;8.10;;;1.40;99.90;;;;;;5107098;28;20059;-60
2021/01/31 07:27:23;;;;;;;22.67;8.40;;;1.40;99.90;;;;;;5098069;28;20036;-59
2021/01/31 07:29:58;;;;;;;20.00;6.75;;;1.40;99.90;;;;;;5100087;28;20054;-60
2021/01/31 07:32:32;;;;;;;22.52;8.27;;;1.30;99.90;;;;;;5108594;28;20402;-61
2021/01/31 07:35:08;;;;;;;18.50;6.68;;;1.40;99.90;;;;;;5105517;28;20043;-61
2021/01/31 07:37:37;;;;;;;17.52;6.82;;;1.40;99.90;;;;;;5105205;28;20051;-60
2021/01/31 07:40:27;;;;;;;23.05;6.45;;;1.40;99.90;;;;;;5102002;28;20085;-61
2021/01/31 07:42:55;;;;;;;15.13;5.35;;;1.40;99.90;;;;;;5109169;28;20153;-61
2021/01/31 07:45:25;;;;;;;17.45;7.43;;;1.40;99.90;;;;;;5104774;28;20447;-61
2021/01/31 07:48:30;;;;;;;17.33;6.63;;;1.40;99.90;;;;;;5104503;28;20051;-61
2021/01/31 07:50:58;;;;;;;20.33;6.82;;;1.50;99.90;;;;;;5087484;28;20056;-61
2021/01/31 07:53:39;;;;;;;17.20;6.07;;;1.40;99.90;;;;;;5107015;28;20052;-61
2021/01/31 07:56:37;;;;;;;21.33;7.45;;;1.50;99.90;;;;;;5102388;28;20043;-61
2021/01/31 07:59:10;;;;;;;26.08;8.55;;;1.60;99.90;;;;;;5096579;28;20489;-61
2021/01/31 08:01:40;;;;;;;27.35;8.80;;;1.60;99.90;;;;;;5100557;28;20032;-61
2021/01/31 08:04:15;;;;;;;18.95;7.82;;;1.70;99.90;;;;;;5102546;28;20423;-61
2021/01/31 08:06:42;;;;;;;19.10;6.85;;;1.70;99.90;;;;;;5126021;27;20521;-61
2021/01/31 08:09:24;;;;;;;19.23;6.63;;;1.70;99.90;;;;;;5111347;28;20088;-61
2021/01/31 08:11:56;;;;;;;15.73;5.57;;;1.70;99.90;;;;;;5113023;28;20032;-60
2021/01/31 08:14:59;;;;;;;19.10;5.90;;;1.70;99.90;;;;;;5101616;28;20056;-61
2021/01/31 08:17:55;;;;;;;16.63;5.63;;;1.80;99.90;;;;;;5103627;28;20031;-61
2021/01/31 08:20:28;;;;;;;16.05;5.50;;;1.90;99.90;;;;;;5105490;27;20054;-61
2021/01/31 08:23:01;;;;;;;12.25;4.70;;;2.00;99.90;;;;;;5107533;28;20047;-61
2021/01/31 08:25:30;;;;;;;16.10;5.53;;;2.10;99.90;;;;;;5104806;28;20505;-61
2021/01/31 08:28:01;;;;;;;13.77;4.75;;;2.20;99.90;;;;;;5109934;28;20039;-61
2021/01/31 08:30:40;;;;;;;18.73;5.57;;;2.20;99.90;;;;;;5120304;27;20059;-61
2021/01/31 08:33:22;;;;;;;14.15;4.80;;;2.20;99.90;;;;;;5104793;28;20062;-60
2021/01/31 08:35:48;;;;;;;16.35;5.15;;;2.20;99.90;;;;;;5104025;28;20043;-60
2021/01/31 08:38:32;;;;;;;15.00;5.30;;;2.30;99.90;;;;;;5109836;28;20048;-61
2021/01/31 08:40:59;;;;;;;16.35;5.70;;;2.30;99.90;;;;;;5104791;28;20063;-61
2021/01/31 08:43:29;;;;;;;13.75;5.35;;;2.40;99.90;;;;;;5098502;28;20050;-61
2021/01/31 08:46:10;;;;;;;12.77;4.43;;;2.40;99.90;;;;;;5101375;28;20040;-61
2021/01/31 08:48:37;;;;;;;18.52;5.65;;;2.50;99.90;;;;;;5105637;28;20031;-60
2021/01/31 08:51:13;;;;;;;15.30;5.70;;;2.60;99.90;;;;;;5110327;28;20039;-60
2021/01/31 08:53:40;;;;;;;14.95;4.88;;;2.70;99.90;;;;;;5108993;28;20043;-61
2021/01/31 08:56:24;;;;;;;15.70;5.90;;;2.80;99.90;;;;;;5109548;28;20044;-61
2021/01/31 08:58:50;;;;;;;15.77;4.35;;;3.00;99.90;;;;;;5105863;28;20039;-61
2021/01/31 09:01:17;;;;;;;16.10;5.40;;;3.10;99.90;;;;;;5111482;28;20035;-61
2021/01/31 09:03:45;;;;;;;16.85;5.03;;;3.20;99.90;;;;;;5100897;28;20089;-60
2021/01/31 09:06:12;;;;;;;14.93;4.47;;;3.40;99.90;;;;;;5109791;28;20529;-60
2021/01/31 09:08:43;;;;;;;12.85;4.40;;;3.40;99.30;;;;;;5109642;28;20082;-60
2021/01/31 09:11:15;;;;;;;10.95;3.90;;;3.40;97.20;;;;;;5108998;27;20024;-61
2021/01/31 09:13:42;;;;;;;13.50;4.32;;;3.50;96.70;;;;;;5110525;28;20039;-61
2021/01/31 09:16:13;;;;;;;13.13;4.10;;;3.60;95.70;;;;;;5103993;28;20039;-61
2021/01/31 09:18:39;;;;;;;16.05;3.42;;;3.60;94.70;;;;;;5106083;28;20047;-60
2021/01/31 09:21:26;;;;;;;10.75;3.72;;;3.60;93.70;;;;;;5110692;28;20406;-61
2021/01/31 09:23:58;;;;;;;8.75;3.30;;;3.70;93.90;;;;;;5111086;28;20055;-60
2021/01/31 09:26:26;;;;;;;11.65;3.80;;;3.80;93.80;;;;;;5110105;28;20444;-60
2021/01/31 09:28:55;;;;;;;10.48;3.92;;;4.00;92.80;;;;;;5109534;28;20047;-61
2021/01/31 09:31:23;;;;;;;11.40;3.70;;;4.10;92.10;;;;;;5106326;28;20081;-60
2021/01/31 09:33:53;;;;;;;11.57;4.15;;;4.20;90.10;;;;;;5104339;27;20506;-61
2021/01/31 09:36:30;;;;;;;6.13;1.80;;;4.20;86.00;;;;;;5105026;28;20046;-61
2021/01/31 09:38:58;;;;;;;7.90;2.60;;;4.00;84.30;;;;;;5107760;28;20050;-60
2021/01/31 09:41:27;;;;;;;5.95;2.15;;;4.00;85.30;;;;;;5100481;28;20051;-62
2021/01/31 09:43:58;;;;;;;7.65;2.03;;;4.00;82.00;;;;;;5097577;28;20112;-61
2021/01/31 09:46:26;;;;;;;6.30;2.35;;;4.00;82.70;;;;;;5103516;28;20059;-60
2021/01/31 09:49:06;;;;;;;7.90;2.38;;;4.10;84.70;;;;;;5119879;27;20047;-62
2021/01/31 09:51:34;;;;;;;7.32;1.88;;;4.20;82.90;;;;;;5097255;27;20507;-60
2021/01/31 09:54:22;;;;;;;9.95;3.05;;;4.20;80.80;;;;;;5102837;28;20054;-60
2021/01/31 09:56:55;;;;;;;10.70;2.92;;;4.10;81.10;;;;;;5103799;28;20044;-61
2021/01/31 09:59:29;;;;;;;10.18;2.50;;;4.10;79.70;;;;;;5109989;28;20039;-61
2021/01/31 10:02:11;;;;;;;8.15;1.95;;;3.90;79.80;;;;;;5108347;28;20043;-60
2021/01/31 10:04:40;;;;;;;9.52;3.53;;;3.90;78.60;;;;;;5106813;28;20531;-60
2021/01/31 10:07:14;;;;;;;9.38;3.17;;;3.90;78.80;;;;;;5109381;28;20043;-61
2021/01/31 10:09:47;;;;;;;6.38;2.35;;;3.90;80.00;;;;;;5100667;28;20127;-60
2021/01/31 10:12:21;;;;;;;9.03;3.60;;;3.90;80.40;;;;;;5094313;28;20047;-61
2021/01/31 10:14:49;;;;;;;8.63;3.22;;;4.00;78.40;;;;;;5106082;28;20286;-61
2021/01/31 10:17:43;;;;;;;7.93;3.20;;;4.10;78.80;;;;;;5100760;28;20529;-61
2021/01/31 10:20:36;;;;;;;12.20;3.72;;;4.00;80.20;;;;;;5098713;28;20082;-61
2021/01/31 10:23:18;;;;;;;;;;;4.20;81.50;;;;;;5097765;28;20134;-60
2021/01/31 10:25:58;;;;;;;11.38;3.67;;;4.30;83.50;;;;;;5099361;28;19934;-60
2021/01/31 10:28:36;;;;;;;10.65;3.38;;;4.50;81.30;;;;;;5100572;28;20096;-61
2021/01/31 10:31:04;;;;;;;13.55;3.80;;;4.50;78.30;;;;;;5099570;27;20391;-61
2021/01/31 10:33:50;;;;;;;15.07;4.43;;;4.60;78.60;;;;;;5101349;28;20047;-60
2021/01/31 10:36:26;;;;;;;11.00;3.97;;;4.50;78.20;;;;;;5101160;28;20047;-60
2021/01/31 10:38:55;;;;;;;13.48;4.32;;;4.50;77.30;;;;;;5105044;28;20088;-63
2021/01/31 10:41:22;;;;;;;11.85;4.18;;;4.60;78.10;;;;;;5107179;28;20051;-61
2021/01/31 10:44:02;;;;;;;12.80;4.13;;;4.60;77.40;;;;;;5101964;28;20043;-60
2021/01/31 10:46:29;;;;;;;15.25;4.68;;;4.50;75.10;;;;;;5103611;27;20039;-61
2021/01/31 10:48:56;;;;;;;12.48;4.57;;;4.30;76.70;;;;;;5104175;28;20062;-60
2021/01/31 10:51:24;;;;;;;12.88;4.07;;;4.30;76.40;;;;;;5094966;28;20055;-61
2021/01/31 10:53:51;;;;;;;13.20;4.57;;;4.20;75.40;;;;;;5095648;28;20044;-62
2021/01/31 10:56:17;;;;;;;14.57;4.53;;;4.10;76.20;;;;;;5107925;28;20498;-60
2021/01/31 10:58:44;;;;;;;11.95;4.30;;;4.00;75.30;;;;;;5095084;28;20075;-61
2021/01/31 11:01:10;;;;;;;11.13;4.05;;;3.80;77.10;;;;;;5104354;27;20039;-61
2021/01/31 11:03:37;;;;;;;17.50;5.25;;;3.80;78.50;;;;;;5100759;28;20126;-61
2021/01/31 11:06:04;;;;;;;11.30;3.58;;;3.90;78.20;;;;;;5096766;28;20039;-61
2021/01/31 11:08:30;;;;;;;11.82;3.97;;;4.10;77.50;;;;;;5090563;28;20063;-61
2021/01/31 11:10:58;;;;;;;15.50;5.35;;;4.10;76.20;;;;;;5099910;28;20063;-60
2021/01/31 11:13:25;;;;;;;13.93;4.75;;;4.30;77.50;;;;;;5096414;28;20105;-61
2021/01/31 11:15:52;;;;;;;11.93;4.63;;;4.30;76.50;;;;;;5092102;28;20051;-60
2021/01/31 11:18:20;;;;;;;11.30;3.75;;;4.30;76.60;;;;;;5104374;28;20047;-60
2021/01/31 11:20:47;;;;;;;14.50;4.63;;;4.30;73.50;;;;;;5103565;28;20046;-60
2021/01/31 11:23:14;;;;;;;15.05;5.38;;;4.30;73.80;;;;;;5105402;28;20036;-59
2021/01/31 11:25:42;;;;;;;12.75;4.57;;;4.30;73.20;;;;;;5102101;28;20039;-61
2021/01/31 11:28:09;;;;;;;15.95;6.03;;;4.30;72.80;;;;;;5101431;28;20071;-61
2021/01/31 11:30:36;;;;;;;14.32;5.30;;;4.40;71.20;;;;;;5092106;28;20032;-61
2021/01/31 11:33:02;;;;;;;16.08;4.60;;;4.40;71.10;;;;;;5103718;28;20121;-59
2021/01/31 11:35:29;;;;;;;16.15;5.15;;;4.40;70.80;;;;;;5102767;28;20040;-60
2021/01/31 11:37:57;;;;;;;15.75;4.55;;;4.30;70.70;;;;;;5103494;28;20039;-61
2021/01/31 11:40:24;;;;;;;13.32;4.22;;;4.30;71.70;;;;;;5104543;28;20402;-61
2021/01/31 11:42:51;;;;;;;17.70;5.07;;;4.30;72.00;;;;;;5108541;28;20044;-61
2021/01/31 11:45:19;;;;;;;14.50;4.50;;;4.30;70.30;;;;;;5102504;28;20047;-61
2021/01/31 11:47:46;;;;;;;11.45;4.60;;;4.20;71.10;;;;;;5109430;28;20036;-61
2021/01/31 11:50:14;;;;;;;14.35;4.90;;;4.20;71.10;;;;;;5108695;28;20055;-61
2021/01/31 11:52:41;;;;;;;13.32;4.65;;;4.30;71.80;;;;;;5110651;28;20043;-62
2021/01/31 11:55:08;;;;;;;14.13;4.53;;;4.30;71.80;;;;;;5105337;28;20413;-61
2021/01/31 11:57:37;;;;;;;12.15;4.63;;;4.40;70.50;;;;;;5110584;28;20589;-60
2021/01/31 12:00:09;;;;;;;13.88;4.40;;;4.50;71.10;;;;;;5111603;28;20051;-62
2021/01/31 12:02:39;;;;;;;16.90;4.50;;;4.60;71.70;;;;;;5096415;28;20048;-62
2021/01/31 12:05:10;;;;;;;15.50;5.00;;;4.60;71.30;;;;;;5106068;28;20039;-61
2021/01/31 12:07:38;;;;;;;11.73;4.28;;;4.80;70.60;;;;;;5106351;28;20036;-62
2021/01/31 12:10:06;;;;;;;13.65;4.95;;;4.80;70.00;;;;;;5105131;28;20059;-61
2021/01/31 12:12:33;;;;;;;11.95;4.45;;;5.00;71.20;;;;;;5100270;27;20058;-61
2021/01/31 12:15:00;;;;;;;13.55;5.43;;;5.10;69.10;;;;;;5103344;28;20543;-61
2021/01/31 12:17:26;;;;;;;12.65;4.55;;;5.30;70.30;;;;;;5106058;28;20047;-62
2021/01/31 12:19:53;;;;;;;13.38;4.35;;;5.40;68.10;;;;;;5108768;28;20050;-61
2021/01/31 12:22:22;;;;;;;12.40;4.63;;;5.60;68.60;;;;;;5107267;28;20066;-62
2021/01/31 12:24:52;;;;;;;12.35;4.82;;;5.90;65.00;;;;;;5101550;28;20491;-62
2021/01/31 12:27:21;;;;;;;12.02;4.40;;;6.00;66.50;;;;;;5108785;28;20044;-61
2021/01/31 12:29:50;;;;;;;14.05;4.43;;;6.20;65.10;;;;;;5106272;28;20859;-61
2021/01/31 12:32:17;;;;;;;11.57;4.03;;;6.30;64.30;;;;;;5105215;28;20056;-60
2021/01/31 12:34:44;;;;;;;14.00;4.03;;;6.40;63.10;;;;;;5094775;28;20044;-62
2021/01/31 12:37:11;;;;;;;10.73;3.70;;;6.30;64.10;;;;;;5098578;28;20040;-60
2021/01/31 12:39:39;;;;;;;14.13;3.92;;;6.30;64.40;;;;;;5101750;28;20039;-60
2021/01/31 12:42:05;;;;;;;15.52;4.00;;;6.40;65.00;;;;;;5096639;28;20048;-61
2021/01/31 12:44:32;;;;;;;10.10;4.05;;;6.60;64.10;;;;;;5124981;27;20050;-60
2021/01/31 12:46:58;;;;;;;14.57;5.05;;;6.80;63.90;;;;;;5096421;28;20044;-60
2021/01/31 12:49:25;;;;;;;11.25;4.43;;;6.90;64.30;;;;;;5108350;28;20071;-61
2021/01/31 12:51:51;;;;;;;12.65;4.18;;;7.00;64.30;;;;;;5103333;28;20513;-60
2021/01/31 12:54:23;;;;;;;10.15;3.75;;;7.00;64.00;;;;;;5107311;28;20074;-61
2021/01/31 12:56:50;;;;;;;12.73;4.13;;;6.80;62.30;;;;;;5118834;27;20119;-61
2021/01/31 12:59:18;;;;;;;18.77;5.53;;;6.60;63.80;;;;;;5100691;28;20043;-61
2021/01/31 13:01:44;;;;;;;17.25;5.72;;;6.40;64.10;;;;;;5100769;28;20092;-61
2021/01/31 13:04:11;;;;;;;14.45;4.85;;;6.30;64.80;;;;;;5099576;27;20046;-60
2021/01/31 13:06:38;;;;;;;12.20;4.57;;;6.20;66.00;;;;;;5107385;28;20486;-60
2021/01/31 13:09:05;;;;;;;13.02;4.32;;;6.20;65.30;;;;;;5099983;28;20816;-59
2021/01/31 13:11:32;;;;;;;16.08;4.95;;;6.10;65.50;;;;;;5093047;28;20489;-61
2021/01/31 13:13:58;;;;;;;12.43;4.47;;;6.10;64.90;;;;;;5105168;28;20494;-61
2021/01/31 13:16:25;;;;;;;14.50;5.30;;;6.20;66.50;;;;;;5108572;28;20490;-61
2021/01/31 13:18:52;;;;;;;13.80;4.70;;;6.30;65.90;;;;;;5096332;28;20653;-62